Time;durP1;ratioP1;P1;durP2;ratioP2;P2;SDS_P1;SDS_P2;PMS_P1;PMS_P2;Temp;Humidity;BMP_temperature;BMP_pressure;BME280_temperature;BME280_humidity;BME280_pressure;Samples;Min_cycle;Max_cycle;Signal;HPM_P1;HPM_P2
2022/12/14 00:04:54;;;;;;;27.05;17.85;;;;;;;-2.85;100.00;100568.53;10416701;28;20033;-72
2022/12/14 00:09:54;;;;;;;22.55;13.48;;;;;;;-2.89;100.00;100559.97;10416735;28;20385;-73
2022/12/14 00:14:55;;;;;;;23.77;13.88;;;;;;;-2.91;100.00;100548.63;10417707;28;20042;-73
2022/12/14 00:19:55;;;;;;;17.85;14.98;;;;;;;-2.88;100.00;100537.81;10415217;28;20044;-73
2022/12/14 00:24:56;;;;;;;30.27;18.90;;;;;;;-2.87;100.00;100526.25;10416686;28;20049;-75
2022/12/14 00:29:56;;;;;;;21.92;15.20;;;;;;;-2.87;100.00;100517.44;10414772;28;20037;-73
2022/12/14 00:34:56;;;;;;;21.65;15.80;;;;;;;-2.88;100.00;100516.59;10415149;28;20517;-74
2022/12/14 00:39:57;;;;;;;25.73;14.63;;;;;;;-2.84;100.00;100509.25;10415570;28;20042;-73
2022/12/14 00:44:57;;;;;;;29.95;19.40;;;;;;;-2.89;100.00;100501.69;10415497;28;20121;-73
2022/12/14 00:49:57;;;;;;;24.73;14.45;;;;;;;-2.91;100.00;100498.28;10414738;28;20044;-72
2022/12/14 00:54:58;;;;;;;18.05;13.40;;;;;;;-3.00;100.00;100496.38;10415289;28;20068;-74
2022/12/14 00:59:58;;;;;;;19.88;14.00;;;;;;;-2.98;100.00;100475.06;10415182;28;20025;-73
2022/12/14 01:04:59;;;;;;;26.00;16.77;;;;;;;-2.97;100.00;100474.94;10417275;28;20045;-73
2022/12/14 01:09:59;;;;;;;26.35;16.70;;;;;;;-2.90;100.00;100476.16;10423236;28;20026;-74
2022/12/14 01:14:59;;;;;;;28.50;18.73;;;;;;;-2.90;100.00;100467.38;10423754;28;20041;-74
2022/12/14 01:20:00;;;;;;;36.65;20.45;;;;;;;-2.87;100.00;100465.31;10424001;28;20041;-74
2022/12/14 01:25:00;;;;;;;33.35;17.75;;;;;;;-2.86;100.00;100461.69;10424437;28;20033;-73
2022/12/14 01:30:01;;;;;;;25.92;15.85;;;;;;;-2.88;100.00;100470.72;10421333;28;20051;-73
2022/12/14 01:35:01;;;;;;;18.88;10.13;;;;;;;-2.89;100.00;100487.59;10424429;28;20049;-74
2022/12/14 01:40:02;;;;;;;15.35;10.55;;;;;;;-2.90;100.00;100486.75;10422148;28;20462;-73
2022/12/14 01:45:03;;;;;;;23.95;15.80;;;;;;;-2.88;100.00;100484.81;10421047;28;20041;-74
2022/12/14 01:50:14;;;;;;;26.08;17.02;;;;;;;-2.93;100.00;100478.22;10420469;28;20033;-73
2022/12/14 01:55:32;;;;;;;19.77;12.35;;;;;;;-3.04;100.00;100471.94;10422454;28;20033;-73
2022/12/14 02:00:32;;;;;;;25.80;17.50;;;;;;;-3.03;100.00;100464.84;10422056;28;20068;-73
2022/12/14 02:05:34;;;;;;;23.40;16.63;;;;;;;-3.01;100.00;100473.50;10419727;28;20520;-74
2022/12/14 02:10:34;;;;;;;19.40;15.20;;;;;;;-3.01;100.00;100464.72;10421365;28;20520;-74
2022/12/14 02:15:35;;;;;;;26.23;15.65;;;;;;;-3.04;100.00;100465.78;10421631;28;20033;-73
2022/12/14 02:20:44;;;;;;;13.13;10.20;;;;;;;-3.05;100.00;100467.59;10420349;28;20112;-73
2022/12/14 02:26:08;;;;;;;18.35;12.68;;;;;;;-3.08;100.00;100459.91;10436535;28;20076;-73
2022/12/14 02:31:26;;;;;;;19.88;11.70;;;;;;;-3.08;100.00;100457.25;10435546;28;20057;-72
2022/12/14 02:36:34;;;;;;;20.67;10.90;;;;;;;-3.18;100.00;100463.41;10436265;28;20432;-74
2022/12/14 02:42:08;;;;;;;31.83;13.00;;;;;;;-3.27;100.00;100457.84;10419283;28;20516;-74
2022/12/14 02:47:14;;;;;;;20.65;11.13;;;;;;;-3.24;100.00;100456.78;10419257;28;20083;-72
2022/12/14 02:52:29;;;;;;;22.25;15.40;;;;;;;-3.27;100.00;100443.78;10435158;28;20052;-73
2022/12/14 02:57:33;;;;;;;18.77;11.87;;;;;;;-3.33;100.00;100449.53;10420100;28;20057;-73
2022/12/14 03:02:35;;;;;;;29.52;14.98;;;;;;;-3.46;100.00;100447.00;10419388;28;20029;-73
2022/12/14 03:07:52;;;;;;;20.23;14.77;;;;;;;-3.46;100.00;100435.56;10434341;28;20512;-73
2022/12/14 03:12:58;;;;;;;13.60;9.73;;;;;;;-3.49;100.00;100426.06;10417882;28;20030;-72
2022/12/14 03:17:59;;;;;;;26.70;16.38;;;;;;;-3.41;100.00;100421.03;10417391;28;20033;-73
2022/12/14 03:23:06;;;;;;;20.63;15.07;;;;;;;-3.40;100.00;100416.56;10417577;28;20026;-73
2022/12/14 03:28:10;;;;;;;22.65;14.45;;;;;;;-3.45;100.00;100398.38;10417974;28;20092;-73
2022/12/14 03:33:14;;;;;;;20.83;15.05;;;;;;;-3.33;100.00;100396.59;10433872;28;20388;-73
2022/12/14 03:38:25;;;;;;;22.83;15.65;;;;;;;-3.34;100.00;100393.09;10416457;28;20469;-73
2022/12/14 03:43:36;;;;;;;13.82;10.75;;;;;;;-3.37;100.00;100380.13;10431895;28;20029;-71
2022/12/14 03:48:50;;;;;;;19.08;13.63;;;;;;;-3.40;100.00;100379.50;10416231;28;20037;-72
2022/12/14 03:54:07;;;;;;;26.40;14.38;;;;;;;-3.42;100.00;100374.31;10415969;28;20041;-73
2022/12/14 03:59:17;;;;;;;21.13;14.25;;;;;;;-3.38;100.00;100381.09;10416329;28;20041;-73
2022/12/14 04:04:25;;;;;;;20.35;13.32;;;;;;;-3.40;100.00;100369.75;10415689;28;20041;-73
2022/12/14 04:09:29;;;;;;;22.55;15.63;;;;;;;-3.39;100.00;100371.44;10431473;28;20378;-72
2022/12/14 04:19:53;;;;;;;29.05;17.42;;;;;;;-3.56;100.00;100367.47;10415123;28;20101;-72
2022/12/14 04:30:26;;;;;;;21.23;14.95;;;;;;;-3.65;100.00;100354.97;10416674;28;20462;-73
2022/12/14 04:35:35;;;;;;;18.45;13.27;;;;;;;-3.68;100.00;100352.56;10413733;28;20057;-72
2022/12/14 04:40:39;;;;;;;25.80;14.70;;;;;;;-3.68;100.00;100343.78;10399977;28;20038;-72
2022/12/14 04:45:50;;;;;;;17.75;13.40;;;;;;;-3.68;100.00;100341.97;10414196;28;20393;-73
2022/12/14 04:50:54;;;;;;;18.33;13.15;;;;;;;-3.74;100.00;100338.00;10415070;28;20025;-72
2022/12/14 04:56:17;;;;;;;24.77;15.88;;;;;;;-3.72;100.00;100343.19;10414504;28;20029;-72
2022/12/14 05:01:22;;;;;;;19.60;14.93;;;;;;;-3.86;100.00;100335.47;10393870;28;20049;-71
2022/12/14 05:06:26;;;;;;;22.83;14.97;;;;;;;-3.92;100.00;100341.25;10429613;28;20030;-72
2022/12/14 05:11:33;;;;;;;25.08;16.02;;;;;;;-4.08;100.00;100331.84;10414673;28;20026;-72
2022/12/14 05:16:34;;;;;;;27.15;16.05;;;;;;;-4.17;100.00;100335.19;10415771;28;20033;-71
2022/12/14 05:21:47;;;;;;;24.95;16.63;;;;;;;-4.22;100.00;100332.88;10413546;28;20037;-72
2022/12/14 05:26:47;;;;;;;25.83;16.17;;;;;;;-4.42;100.00;100327.44;10414725;28;20459;-71
2022/12/14 05:31:48;;;;;;;33.03;16.63;;;;;;;-4.53;100.00;100342.28;10414323;28;20060;-72
2022/12/14 05:36:49;;;;;;;32.13;17.17;;;;;;;-4.67;100.00;100337.19;10396599;28;20109;-74
2022/12/14 05:41:49;;;;;;;29.83;17.67;;;;;;;-4.72;100.00;100339.34;10376324;28;20072;-71
2022/12/14 05:46:50;;;;;;;31.23;18.02;;;;;;;-4.86;100.00;100331.56;10412547;28;20475;-70
2022/12/14 05:51:50;;;;;;;25.60;16.55;;;;;;;-4.92;100.00;100332.84;10416495;28;20036;-73
2022/12/14 05:56:51;;;;;;;30.27;16.45;;;;;;;-4.94;100.00;100325.06;10421273;28;20033;-72
2022/12/14 06:01:51;;;;;;;27.77;18.38;;;;;;;-4.98;100.00;100323.63;10421412;28;20428;-73
2022/12/14 06:06:52;;;;;;;24.02;16.85;;;;;;;-4.99;100.00;100324.53;10421817;28;20099;-73
2022/12/14 06:11:52;;;;;;;33.70;18.38;;;;;;;-5.01;100.00;100323.84;10420532;28;20041;-72
2022/12/14 06:16:52;;;;;;;25.35;15.90;;;;;;;-5.19;100.00;100319.88;10420737;28;20100;-73
2022/12/14 06:21:53;;;;;;;32.72;17.17;;;;;;;-5.30;100.00;100327.72;10422060;28;20033;-73
2022/12/14 06:26:53;;;;;;;18.92;14.55;;;;;;;-5.49;100.00;100320.28;10420190;28;20065;-74
2022/12/14 06:31:54;;;;;;;27.88;17.75;;;;;;;-5.65;100.00;100320.50;10420507;28;20115;-76
2022/12/14 06:36:55;;;;;;;19.38;14.60;;;;;;;-5.78;100.00;100315.25;10420585;28;20056;-72
2022/12/14 06:41:57;;;;;;;30.27;16.35;;;;;;;-5.93;100.00;100309.31;10419357;28;20132;-72
2022/12/14 06:46:57;;;;;;;31.02;16.65;;;;;;;-5.97;100.00;100325.44;10420104;28;20098;-72
2022/12/14 06:51:58;;;;;;;29.83;19.33;;;;;;;-6.05;100.00;100325.97;10420474;28;20095;-73
2022/12/14 06:56:58;;;;;;;24.50;17.90;;;;;;;-6.15;100.00;100322.28;10436805;28;20362;-74
2022/12/14 07:01:58;;;;;;;23.38;16.60;;;;;;;-6.17;100.00;100329.44;10421419;28;20068;-73
2022/12/14 07:06:59;;;;;;;25.98;18.08;;;;;;;-6.21;100.00;100336.72;10418292;28;20084;-72
2022/12/14 07:11:59;;;;;;;25.35;16.35;;;;;;;-6.28;100.00;100327.53;10400712;28;20044;-73
2022/12/14 07:17:00;;;;;;;27.45;18.88;;;;;;;-6.18;100.00;100339.13;10417506;28;20029;-73
2022/12/14 07:22:03;;;;;;;27.67;16.50;;;;;;;-6.21;100.00;100336.72;10417792;28;20458;-73
2022/12/14 07:27:03;;;;;;;30.30;19.30;;;;;;;-6.18;100.00;100314.59;10418501;28;20037;-73
2022/12/14 07:32:03;;;;;;;29.55;20.55;;;;;;;-5.98;100.00;100329.03;10433845;28;20436;-73
2022/12/14 07:37:04;;;;;;;29.08;19.98;;;;;;;-5.95;100.00;100328.81;10434930;28;20117;-74
2022/12/14 07:42:04;;;;;;;24.38;16.55;;;;;;;-6.08;100.00;100349.91;10433994;28;20040;-74
2022/12/14 07:47:05;;;;;;;32.55;18.48;;;;;;;-6.19;100.00;100349.78;10417022;28;20409;-74
2022/12/14 07:52:05;;;;;;;32.00;19.25;;;;;;;-6.28;100.00;100355.69;10418628;28;20053;-73
2022/12/14 07:57:05;;;;;;;22.73;16.88;;;;;;;-6.29;100.00;100359.25;10415244;28;20120;-72
2022/12/14 08:02:09;;;;;;;28.90;17.13;;;;;;;-6.35;100.00;100366.63;10399085;28;20037;-72
2022/12/14 08:07:10;;;;;;;29.70;18.63;;;;;;;-6.38;100.00;100371.25;10415107;28;20036;-72
2022/12/14 08:12:10;;;;;;;21.38;15.98;;;;;;;-6.30;100.00;100365.47;10417081;28;20028;-72
2022/12/14 08:17:10;;;;;;;23.15;15.85;;;;;;;-6.19;100.00;100365.59;10415419;28;20033;-72
2022/12/14 08:22:11;;;;;;;26.58;16.83;;;;;;;-6.10;100.00;100365.81;10415398;28;20030;-72
2022/12/14 08:27:11;;;;;;;19.50;15.88;;;;;;;-5.86;100.00;100360.63;10416699;28;20079;-72
2022/12/14 08:32:11;;;;;;;26.50;17.20;;;;;;;-4.53;100.00;100359.94;10417581;28;20046;-73
2022/12/14 08:37:12;;;;;;;35.45;18.50;;;;;;;-3.51;100.00;100359.16;10415032;28;20032;-74
2022/12/14 08:42:12;;;;;;;23.88;16.23;;;;;;;-2.89;100.00;100369.22;10415253;28;20125;-74
2022/12/14 08:47:13;;;;;;;39.35;20.63;;;;;;;-2.46;100.00;100365.69;10415661;28;20033;-75
2022/12/14 08:52:13;;;;;;;32.22;21.15;;;;;;;-2.00;100.00;100372.47;10414984;28;20034;-73
2022/12/14 08:57:13;;;;;;;31.30;21.00;;;;;;;-1.62;100.00;100378.13;10415654;28;20163;-74
2022/12/14 09:02:15;;;;;;;22.52;16.63;;;;;;;-1.28;100.00;100371.56;10414911;28;20040;-74
2022/12/14 09:07:16;;;;;;;22.48;15.25;;;;;;;-0.82;100.00;100366.66;10430505;28;20465;-74
2022/12/14 09:12:16;;;;;;;23.95;13.82;;;;;;;-0.62;100.00;100379.00;10414375;28;20037;-72
2022/12/14 09:17:17;;;;;;;15.80;12.40;;;;;;;-0.30;100.00;100373.41;10414359;28;20060;-73
2022/12/14 09:22:17;;;;;;;26.48;13.15;;;;;;;-0.02;100.00;100376.22;10398827;28;20041;-73
2022/12/14 09:27:18;;;;;;;20.10;13.15;;;;;;;0.26;100.00;100374.47;10417502;28;20037;-72
2022/12/14 09:32:18;;;;;;;19.10;12.05;;;;;;;0.40;100.00;100365.19;10421482;28;20160;-71
2022/12/14 09:37:19;;;;;;;16.50;12.68;;;;;;;-0.10;100.00;100368.09;10421883;28;20037;-72
2022/12/14 09:42:19;;;;;;;16.85;13.05;;;;;;;-0.86;100.00;100368.78;10420971;28;20026;-72
2022/12/14 09:47:41;;;;;;;15.27;11.60;;;;;;;-1.33;100.00;100384.41;10422073;28;20030;-71
2022/12/14 09:52:45;;;;;;;18.52;13.52;;;;;;;-1.98;100.00;100381.16;10434074;28;20116;-72
2022/12/14 09:57:46;;;;;;;19.13;12.43;;;;;;;-2.18;100.00;100396.06;10438496;28;20033;-72
2022/12/14 10:02:58;;;;;;;20.77;11.93;;;;;;;-2.31;100.00;100400.72;10437401;28;20025;-72
2022/12/14 10:08:19;;;;;;;23.20;14.88;;;;;;;-2.08;100.00;100396.13;10421448;28;20033;-73
2022/12/14 10:13:31;;;;;;;19.85;14.20;;;;;;;-1.37;100.00;100396.28;10436419;28;20108;-73
2022/12/14 10:18:48;;;;;;;18.52;12.85;;;;;;;-0.84;100.00;100385.41;10437136;28;20021;-74
2022/12/14 10:23:59;;;;;;;17.60;13.82;;;;;;;0.00;100.00;100387.56;10420081;28;20067;-74
2022/12/14 10:29:16;;;;;;;17.95;11.82;;;;;;;0.60;100.00;100377.44;10418854;28;20488;-73
2022/12/14 10:34:18;;;;;;;17.35;11.80;;;;;;;0.84;100.00;100373.44;10436221;28;20049;-73
2022/12/14 10:39:30;;;;;;;22.48;12.10;;;;;;;1.11;100.00;100369.91;10417830;28;20033;-72
2022/12/14 10:44:59;;;;;;;18.55;12.00;;;;;;;1.22;100.00;100364.38;10420682;28;20064;-73
2022/12/14 10:50:30;;;;;;;15.20;10.02;;;;;;;0.99;100.00;100366.63;10397546;28;20037;-72
2022/12/14 10:55:37;;;;;;;19.00;10.65;;;;;;;-0.06;100.00;100358.84;10433153;28;20527;-73
2022/12/14 11:00:37;;;;;;;16.80;11.38;;;;;;;-0.47;100.00;100359.00;10418614;28;20170;-73
2022/12/14 11:05:46;;;;;;;21.83;10.48;;;;;;;-0.72;100.00;100363.03;10418634;28;20060;-73
2022/12/14 11:10:46;;;;;;;15.77;11.38;;;;;;;-0.90;100.00;100359.38;10434063;28;20036;-73
2022/12/14 11:15:48;;;;;;;19.42;10.43;;;;;;;-1.02;100.00;100361.31;10417460;28;20021;-72
2022/12/14 11:20:49;;;;;;;21.15;12.60;;;;;;;-1.05;100.00;100366.06;10417981;28;20033;-72
2022/12/14 11:25:54;;;;;;;16.75;11.13;;;;;;;-1.15;100.00;100354.53;10418230;28;20068;-72
2022/12/14 11:31:05;;;;;;;16.20;10.68;;;;;;;-1.15;100.00;100368.66;10417220;28;20030;-73
2022/12/14 11:36:07;;;;;;;9.50;8.45;;;;;;;-1.17;100.00;100373.28;10399470;28;20041;-73
2022/12/14 11:41:07;;;;;;;10.20;9.20;;;;;;;-1.12;100.00;100378.19;10415756;28;20103;-72
2022/12/14 11:46:08;;;;;;;14.15;9.88;;;;;;;-1.08;100.00;100383.13;10416168;28;20088;-72
2022/12/14 11:51:12;;;;;;;9.55;8.38;;;;;;;-1.09;100.00;100364.63;10415026;28;20080;-73
2022/12/14 11:56:14;;;;;;;20.33;10.63;;;;;;;-0.97;100.00;100380.34;10415994;28;20021;-73
2022/12/14 12:01:16;;;;;;;15.18;9.07;;;;;;;0.33;100.00;100374.75;10416555;28;20036;-72
2022/12/14 12:06:27;;;;;;;16.15;10.38;;;;;;;0.95;100.00;100362.56;10431312;28;20032;-72
2022/12/14 12:11:32;;;;;;;10.18;8.65;;;;;;;1.27;100.00;100363.91;10415062;28;20033;-73
2022/12/14 12:16:34;;;;;;;15.10;9.75;;;;;;;1.62;100.00;100358.59;10414574;28;20450;-71
2022/12/14 12:21:36;;;;;;;17.25;9.60;;;;;;;1.97;100.00;100372.06;10432011;28;20048;-73
2022/12/14 12:26:41;;;;;;;13.05;9.48;;;;;;;2.20;100.00;100367.06;10416213;28;20033;-73
2022/12/14 12:31:55;;;;;;;27.85;10.10;;;;;;;2.51;100.00;100362.09;10416861;28;20049;-73
2022/12/14 12:36:56;;;;;;;12.20;9.15;;;;;;;2.65;100.00;100361.50;10415860;28;20484;-72
2022/12/14 12:42:31;;;;;;;13.40;9.88;;;;;;;2.87;100.00;100368.13;10414019;28;20052;-72
2022/12/14 12:47:39;;;;;;;12.25;8.63;;;;;;;2.96;100.00;100377.00;10407552;28;20042;-73
2022/12/14 12:53:02;;;;;;;12.68;7.60;;;;;;;2.87;100.00;100378.84;10398854;28;20093;-72
2022/12/14 12:58:03;;;;;;;18.25;7.95;;;;;;;2.50;100.00;100379.97;10413982;28;20092;-73
2022/12/14 13:03:22;;;;;;;13.45;8.35;;;;;;;2.05;100.00;100386.34;10419316;28;20025;-72
2022/12/14 13:08:25;;;;;;;10.82;6.45;;;;;;;1.85;100.00;100382.16;10439746;28;20071;-74
2022/12/14 13:13:30;;;;;;;10.65;8.30;;;;;;;1.59;100.00;100384.75;10438022;28;20044;-72
2022/12/14 13:18:42;;;;;;;12.65;9.38;;;;;;;1.45;100.00;100385.28;10437347;28;20022;-74
2022/12/14 13:23:42;;;;;;;10.07;7.22;;;;;;;1.20;100.00;100387.69;10343237;28;20072;-72
2022/12/14 13:28:49;;;;;;;8.95;6.97;;;;;;;1.19;100.00;100390.50;10381259;28;20049;-73
2022/12/14 13:33:53;;;;;;;7.47;6.78;;;;;;;1.19;100.00;100395.84;10396714;28;20046;-73
2022/12/14 13:39:18;;;;;;;8.23;6.43;;;;;;;1.12;100.00;100392.94;10381525;28;20033;-73
2022/12/14 13:44:38;;;;;;;10.32;5.93;;;;;;;0.94;100.00;100387.56;10364716;28;20056;-73
2022/12/14 13:49:38;;;;;;;8.73;6.95;;;;;;;0.90;100.00;100400.34;10397322;28;20056;-74
2022/12/14 13:54:39;;;;;;;10.73;6.90;;;;;;;0.86;100.00;100398.09;10379507;28;20045;-73
2022/12/14 13:59:41;;;;;;;5.80;5.15;;;;;;;0.77;100.00;100389.19;10380462;28;20033;-72
2022/12/14 14:04:42;;;;;;;8.00;6.15;;;;;;;0.61;100.00;100395.13;10395081;28;20052;-72
2022/12/14 14:09:42;;;;;;;7.53;6.38;;;;;;;0.51;100.00;100398.78;10379787;28;20370;-73
2022/12/14 14:14:49;;;;;;;7.35;6.45;;;;;;;0.39;100.00;100398.16;10379665;28;20442;-73
2022/12/14 14:19:51;;;;;;;6.78;5.97;;;;;;;0.33;100.00;100396.06;10380744;28;20021;-74
2022/12/14 14:25:01;;;;;;;10.23;7.38;;;;;;;0.47;100.00;100392.91;10378147;28;20397;-74
2022/12/14 14:30:17;;;;;;;10.38;6.70;;;;;;;0.38;100.00;100399.97;10379208;28;20141;-73
2022/12/14 14:35:24;;;;;;;8.15;6.30;;;;;;;0.34;100.00;100389.72;10377284;28;20046;-73
2022/12/14 14:40:27;;;;;;;12.70;7.05;;;;;;;0.24;100.00;100408.41;10378486;28;20037;-74
2022/12/14 14:45:29;;;;;;;8.70;6.45;;;;;;;0.03;100.00;100408.53;10377544;28;20033;-73
2022/12/14 14:50:33;;;;;;;9.73;6.65;;;;;;;-0.21;100.00;100416.16;10378505;28;20036;-73
2022/12/14 14:55:34;;;;;;;9.95;8.00;;;;;;;-0.44;100.00;100411.09;10393056;28;20038;-75
2022/12/14 15:00:46;;;;;;;14.80;6.72;;;;;;;-0.62;100.00;100412.75;10379052;28;20034;-75
2022/12/14 15:05:47;;;;;;;10.98;6.25;;;;;;;-0.84;100.00;100422.63;10377400;28;20115;-73
2022/12/14 15:10:47;;;;;;;15.13;6.93;;;;;;;-1.25;100.00;100421.75;10376447;28;20030;-74
2022/12/14 15:15:48;;;;;;;14.02;6.45;;;;;;;-1.59;100.00;100426.50;10376090;28;20101;-74
2022/12/14 15:20:58;;;;;;;9.60;4.97;;;;;;;-1.82;100.00;100415.16;10376563;28;20390;-73
2022/12/14 15:25:59;;;;;;;11.35;6.18;;;;;;;-1.96;100.00;100434.06;10375918;28;20022;-75
2022/12/14 15:30:59;;;;;;;14.35;7.93;;;;;;;-2.12;100.00;100435.34;10377314;28;20041;-73
2022/12/14 15:36:07;;;;;;;9.90;7.43;;;;;;;-2.32;100.00;100433.50;10378053;28;20058;-74
2022/12/14 15:41:15;;;;;;;11.43;8.77;;;;;;;-2.32;100.00;100438.81;10373994;28;20492;-74
2022/12/14 15:46:24;;;;;;;13.23;6.75;;;;;;;-2.26;100.00;100451.56;10391699;28;20470;-75
2022/12/14 15:51:36;;;;;;;10.90;7.47;;;;;;;-2.36;100.00;100450.66;10376327;28;20037;-74
2022/12/14 15:56:37;;;;;;;9.88;6.60;;;;;;;-2.44;100.00;100461.84;10375620;28;20037;-73
2022/12/14 16:01:39;;;;;;;12.48;9.52;;;;;;;-2.45;100.00;100467.31;10375036;28;20036;-75
2022/12/14 16:06:43;;;;;;;14.50;10.20;;;;;;;-2.43;100.00;100465.34;10390797;28;20034;-75
2022/12/14 16:11:46;;;;;;;10.70;7.95;;;;;;;-1.99;100.00;100456.38;10374344;28;20037;-75
2022/12/14 16:16:46;;;;;;;15.38;9.40;;;;;;;-1.75;100.00;100469.44;10375475;28;20080;-75
2022/12/14 16:22:06;;;;;;;21.67;11.82;;;;;;;-1.81;100.00;100483.22;10374242;28;20034;-75
2022/12/14 16:27:16;;;;;;;16.23;10.55;;;;;;;-1.85;100.00;100475.63;10357614;28;20553;-74
2022/12/14 16:32:17;;;;;;;19.67;9.30;;;;;;;-1.95;100.00;100470.25;10373817;28;20129;-74
2022/12/14 16:37:17;;;;;;;19.05;11.18;;;;;;;-2.09;100.00;100470.56;10373493;28;20386;-75
2022/12/14 16:42:19;;;;;;;17.33;12.07;;;;;;;-2.15;100.00;100461.28;10358137;28;20374;-74
2022/12/14 16:47:19;;;;;;;14.02;10.75;;;;;;;-2.28;100.00;100461.44;10375617;28;20092;-74
2022/12/14 16:52:25;;;;;;;29.55;12.50;;;;;;;-2.42;100.00;100464.41;10374781;28;20030;-72
2022/12/14 16:57:25;;;;;;;24.88;15.20;;;;;;;-2.55;100.00;100475.16;10389352;28;20030;-74
2022/12/14 17:02:31;;;;;;;16.92;13.38;;;;;;;-2.73;100.00;100456.25;10375076;28;20046;-74
2022/12/14 17:07:32;;;;;;;16.80;14.23;;;;;;;-2.70;100.00;100471.09;10389333;28;20026;-74
2022/12/14 17:12:33;;;;;;;18.67;12.27;;;;;;;-2.79;100.00;100472.66;10356573;28;20540;-75
2022/12/14 17:17:33;;;;;;;16.75;11.07;;;;;;;-2.64;100.00;100474.09;10374124;28;20044;-75
2022/12/14 17:22:34;;;;;;;25.00;15.20;;;;;;;-2.78;100.00;100471.69;10389822;28;20369;-75
2022/12/14 17:27:34;;;;;;;20.30;12.73;;;;;;;-2.90;100.00;100481.47;10374567;28;20026;-75
2022/12/14 17:32:35;;;;;;;29.75;15.23;;;;;;;-2.89;100.00;100477.00;10373705;28;20056;-74
2022/12/14 17:37:35;;;;;;;23.38;13.98;;;;;;;-3.00;100.00;100480.47;10377099;28;20059;-74
2022/12/14 17:42:36;;;;;;;16.75;13.25;;;;;;;-3.16;100.00;100478.22;10372451;28;20430;-73
2022/12/14 17:47:37;;;;;;;21.27;15.43;;;;;;;-3.22;100.00;100470.75;10373475;28;20033;-75
2022/12/14 17:52:37;;;;;;;25.92;14.80;;;;;;;-3.37;100.00;100479.88;10380956;28;20113;-75
2022/12/14 17:57:38;;;;;;;17.45;11.43;;;;;;;-3.38;100.00;100476.38;10381502;28;20034;-73
2022/12/14 18:02:38;;;;;;;20.92;14.80;;;;;;;-3.41;100.00;100473.13;10381207;28;20038;-74
2022/12/14 18:07:39;;;;;;;23.45;14.15;;;;;;;-3.29;100.00;100477.47;10363123;28;20108;-75
2022/12/14 18:12:40;;;;;;;20.27;14.23;;;;;;;-3.38;100.00;100479.03;10379303;28;20026;-75
2022/12/14 18:17:40;;;;;;;16.60;12.40;;;;;;;-3.46;100.00;100483.22;10397379;28;20034;-75
2022/12/14 18:22:41;;;;;;;24.38;15.82;;;;;;;-3.59;100.00;100489.44;10382688;28;20033;-75
2022/12/14 18:27:41;;;;;;;22.52;16.23;;;;;;;-3.60;100.00;100493.06;10395039;28;20417;-75
2022/12/14 18:32:41;;;;;;;22.85;16.25;;;;;;;-3.59;100.00;100489.44;10394909;28;20449;-75
2022/12/14 18:37:42;;;;;;;18.17;14.32;;;;;;;-3.48;100.00;100479.84;10395282;28;20045;-74
2022/12/14 18:42:42;;;;;;;40.70;20.58;;;;;;;-3.28;100.00;100484.47;10394951;28;20038;-74
2022/12/14 18:47:43;;;;;;;25.30;17.05;;;;;;;-3.33;100.00;100489.25;10378156;28;20488;-75
2022/12/14 18:52:44;;;;;;;21.02;15.68;;;;;;;-3.34;100.00;100496.34;10377862;28;20129;-75
2022/12/14 18:57:45;;;;;;;27.30;17.30;;;;;;;-3.40;100.00;100491.53;10378288;28;20110;-75
2022/12/14 19:02:45;;;;;;;24.70;15.50;;;;;;;-3.50;100.00;100490.56;10393889;28;20038;-75
2022/12/14 19:07:46;;;;;;;30.85;17.35;;;;;;;-3.41;100.00;100507.56;10378457;28;20061;-76
2022/12/14 19:12:46;;;;;;;24.02;16.92;;;;;;;-3.33;100.00;100511.28;10379771;28;20033;-74
2022/12/14 19:17:47;;;;;;;24.83;18.80;;;;;;;-3.25;100.00;100520.41;10395709;28;20034;-74
2022/12/14 19:22:48;;;;;;;31.58;18.98;;;;;;;-3.18;100.00;100526.97;10376747;28;20507;-74
2022/12/14 19:27:48;;;;;;;21.08;14.32;;;;;;;-3.18;100.00;100517.22;10378959;28;20058;-73
2022/12/14 19:32:52;;;;;;;18.10;12.23;;;;;;;-3.09;100.00;100527.09;10375574;28;20052;-74
2022/12/14 19:37:53;;;;;;;22.98;13.52;;;;;;;-2.89;100.00;100537.94;10391863;28;20076;-74
2022/12/14 19:42:53;;;;;;;18.25;12.48;;;;;;;-2.77;100.00;100534.34;10377827;28;20149;-74
2022/12/14 19:47:54;;;;;;;26.00;15.82;;;;;;;-2.69;100.00;100531.91;10379660;28;20065;-74
2022/12/14 19:52:54;;;;;;;20.52;13.73;;;;;;;-2.72;100.00;100540.09;10376369;28;20378;-73
2022/12/14 19:57:54;;;;;;;22.38;15.25;;;;;;;-2.66;100.00;100544.91;10376128;28;20040;-75
2022/12/14 20:02:55;;;;;;;16.67;13.32;;;;;;;-2.75;100.00;100542.97;10376097;28;20049;-75
2022/12/14 20:07:55;;;;;;;31.48;17.27;;;;;;;-2.50;100.00;100552.50;10374961;28;20446;-73
2022/12/14 20:12:58;;;;;;;23.00;16.42;;;;;;;-2.50;100.00;100559.59;10375360;28;20031;-72
2022/12/14 20:17:58;;;;;;;15.63;12.93;;;;;;;-2.60;100.00;100560.34;10390934;28;20033;-74
2022/12/14 20:22:58;;;;;;;17.55;13.40;;;;;;;-2.68;100.00;100548.63;10375677;28;20030;-74
2022/12/14 20:27:59;;;;;;;23.15;12.80;;;;;;;-2.65;100.00;100548.41;10376935;28;20045;-74
2022/12/14 20:32:59;;;;;;;19.45;12.90;;;;;;;-2.81;100.00;100557.59;10375042;28;20381;-74
2022/12/14 20:37:59;;;;;;;19.10;14.13;;;;;;;-2.94;100.00;100572.72;10375585;28;20037;-74
2022/12/14 20:43:00;;;;;;;27.58;16.27;;;;;;;-2.66;100.00;100599.72;10375338;28;20034;-74
2022/12/14 20:48:00;;;;;;;13.45;9.98;;;;;;;-1.86;100.00;100599.53;10376449;28;20038;-74
2022/12/14 20:53:01;;;;;;;9.68;6.78;;;;;;;-1.03;100.00;100604.09;10390134;28;20484;-74
2022/12/14 20:58:01;;;;;;;6.53;5.22;;;;;;;-0.59;100.00;100612.75;10374533;28;20038;-72
2022/12/14 21:03:01;;;;;;;7.95;5.18;;;;;;;-0.42;100.00;100605.97;10373158;28;20049;-70
2022/12/14 21:08:02;;;;;;;6.18;4.75;;;;;;;-0.35;100.00;100599.16;10372604;28;20042;-69
2022/12/14 21:13:02;;;;;;;4.30;3.90;;;;;;;-0.34;100.00;100584.84;10375048;28;20096;-69
2022/12/14 21:18:03;;;;;;;4.95;3.83;;;;;;;-0.27;100.00;100588.66;10389352;28;20042;-70
2022/12/14 21:23:03;;;;;;;5.55;4.38;;;;;;;-0.29;100.00;100582.66;10376161;28;20470;-70
2022/12/14 21:28:04;;;;;;;11.32;6.38;;;;;;;-0.32;100.00;100582.91;10397953;28;20034;-71
2022/12/14 21:33:05;;;;;;;7.05;6.00;;;;;;;-0.33;100.00;100586.53;10396912;28;20062;-72
2022/12/14 21:38:05;;;;;;;9.98;7.15;;;;;;;-0.37;100.00;100584.28;10381295;28;20041;-70
2022/12/14 21:43:06;;;;;;;11.50;6.82;;;;;;;-0.41;100.00;100593.53;10381077;28;20038;-71
2022/12/14 21:48:06;;;;;;;10.35;7.50;;;;;;;-0.47;100.00;100601.06;10397839;28;20045;-72
2022/12/14 21:53:06;;;;;;;10.02;6.90;;;;;;;-0.57;100.00;100599.34;10382258;28;20111;-73
2022/12/14 21:58:16;;;;;;;9.93;7.70;;;;;;;-0.68;100.00;100589.59;10380858;28;20385;-73
2022/12/14 22:03:16;;;;;;;10.63;7.75;;;;;;;-0.75;100.00;100591.13;10380280;28;20030;-73
2022/12/14 22:08:16;;;;;;;8.10;7.30;;;;;;;-0.91;100.00;100602.22;10395255;28;20046;-74
2022/12/14 22:13:17;;;;;;;8.68;6.97;;;;;;;-0.98;100.00;100619.69;10394721;28;20073;-74
2022/12/14 22:18:17;;;;;;;7.95;6.72;;;;;;;-0.98;100.00;100622.34;10395367;28;20037;-75
2022/12/14 22:23:18;;;;;;;13.30;7.38;;;;;;;-0.79;100.00;100630.44;10380639;28;20042;-74
2022/12/14 22:28:18;;;;;;;9.40;7.35;;;;;;;-0.54;100.00;100631.00;10379863;28;20049;-73
2022/12/14 22:33:18;;;;;;;13.38;8.60;;;;;;;-0.35;100.00;100620.44;10379241;28;20088;-72
2022/12/14 22:38:19;;;;;;;8.52;6.78;;;;;;;-0.30;100.00;100628.84;10377768;28;20445;-72
2022/12/14 22:43:19;;;;;;;9.10;5.78;;;;;;;-0.29;100.00;100630.53;10380170;28;20095;-72
2022/12/14 22:48:19;;;;;;;5.13;4.63;;;;;;;-0.35;100.00;100630.22;10379366;28;20478;-72
2022/12/14 22:53:20;;;;;;;9.77;5.10;;;;;;;-0.39;100.00;100628.78;10378859;28;20068;-74